createdAt,value
2023-08-14T00:01:00.816Z,95750.59
2023-08-14T00:03:30.538Z,95749.44
2023-08-14T00:06:00.939Z,95734.81
2023-08-14T00:08:30.444Z,95740.28
2023-08-14T00:11:00.120Z,95738.03
2023-08-14T00:13:31.329Z,95719.91
2023-08-14T00:16:01.025Z,95720.84
2023-08-14T00:18:30.599Z,95715.19
2023-08-14T00:21:00.322Z,95707.97
2023-08-14T00:23:30.617Z,95703.78
2023-08-14T00:26:00.299Z,95710.97
2023-08-14T00:28:31.283Z,95702.44
2023-08-14T00:31:01.902Z,95707.72
2023-08-14T00:33:31.742Z,95698.06
2023-08-14T00:36:01.958Z,95702.38
2023-08-14T00:38:31.524Z,95691.91
2023-08-14T00:41:01.070Z,95701.81
2023-08-14T00:43:33.232Z,95698.06
2023-08-14T00:46:03.598Z,95696.75
2023-08-14T00:48:33.644Z,95688.72
2023-08-14T00:51:03.703Z,95688.22
2023-08-14T00:53:33.834Z,95694.31
2023-08-14T00:56:05.669Z,95685.16
2023-08-14T00:58:36.908Z,95679.53
2023-08-14T01:01:08.274Z,95686.69
2023-08-14T01:03:39.821Z,95672.91
2023-08-14T01:06:10.109Z,95685.50
2023-08-14T01:08:39.750Z,95672.53
2023-08-14T01:11:20.690Z,95680.19
2023-08-14T01:14:03.342Z,95679.41
2023-08-14T01:16:40.873Z,95684.06
2023-08-14T01:19:23.182Z,95685.97
2023-08-14T01:22:19.606Z,95681.44
2023-08-14T01:28:01.615Z,95661.84
2023-08-14T01:30:31.904Z,95667.88
2023-08-14T01:33:01.689Z,95660.16
2023-08-14T01:35:40.397Z,95669.25
2023-08-14T01:38:21.559Z,95669.84
2023-08-14T01:40:58.859Z,95677.00
2023-08-14T01:43:34.444Z,95678.44
2023-08-14T01:46:10.882Z,95673.09
2023-08-14T01:48:41.676Z,95681.06
2023-08-14T01:51:12.640Z,95677.53
2023-08-14T01:53:43.114Z,95680.06
2023-08-14T01:56:12.660Z,95678.78
2023-08-14T01:58:43.910Z,95675.56
2023-08-14T02:01:13.525Z,95684.50
2023-08-14T02:03:44.553Z,95680.69
2023-08-14T02:06:14.073Z,95670.13
2023-08-14T02:08:43.658Z,95667.91
2023-08-14T02:11:13.421Z,95673.22
2023-08-14T02:13:44.317Z,95672.28
2023-08-14T02:16:13.919Z,95679.03
2023-08-14T02:18:43.596Z,95674.41
2023-08-14T02:21:13.153Z,95680.94
2023-08-14T02:23:43.976Z,95682.66
2023-08-14T02:26:13.498Z,95684.88
2023-08-14T02:28:47.164Z,95697.16
2023-08-14T02:31:16.744Z,95699.06
2023-08-14T02:33:46.382Z,95704.81
2023-08-14T02:36:52.155Z,95697.00
2023-08-14T02:39:21.952Z,95694.44
2023-08-14T02:41:51.626Z,95701.69
2023-08-14T02:44:22.537Z,95703.81
2023-08-14T02:46:52.032Z,95704.91
2023-08-14T02:49:21.548Z,95695.66
2023-08-14T02:51:52.170Z,95684.16
2023-08-14T02:54:22.085Z,95685.16
2023-08-14T02:56:54.538Z,95677.50
2023-08-14T02:59:26.119Z,95663.81
2023-08-14T03:01:56.020Z,95677.75
2023-08-14T03:04:25.695Z,95670.91
2023-08-14T03:06:55.184Z,95673.75
2023-08-14T03:09:24.731Z,95656.47
2023-08-14T03:11:54.244Z,95649.09
2023-08-14T03:14:25.178Z,95639.34
2023-08-14T03:16:54.739Z,95633.91
2023-08-14T03:19:24.248Z,95626.88
2023-08-14T03:21:53.969Z,95631.50
2023-08-14T03:24:23.518Z,95626.88
2023-08-14T03:26:53.071Z,95637.44
2023-08-14T03:29:25.733Z,95635.22
2023-08-14T03:31:55.193Z,95636.47
2023-08-14T03:34:24.613Z,95620.34
2023-08-14T03:36:54.308Z,95616.66
2023-08-14T03:39:24.151Z,95612.66
2023-08-14T03:41:54.418Z,95615.19
2023-08-14T03:44:25.373Z,95624.13
2023-08-14T03:46:54.858Z,95621.72
2023-08-14T03:49:24.365Z,95625.38
2023-08-14T03:51:53.898Z,95621.34
2023-08-14T03:54:23.740Z,95612.69
2023-08-14T03:56:53.276Z,95620.53
2023-08-14T03:59:22.833Z,95617.50
2023-08-14T04:01:53.761Z,95622.34
2023-08-14T04:04:23.299Z,95623.34
2023-08-14T04:06:53.185Z,95613.75
2023-08-14T04:09:22.821Z,95621.63
2023-08-14T04:11:52.274Z,95619.38
2023-08-14T04:14:21.879Z,95620.97
2023-08-14T04:16:53.067Z,95617.13
2023-08-14T04:19:24.308Z,95621.97
2023-08-14T04:21:53.908Z,95618.63
2023-08-14T04:24:23.513Z,95623.75
2023-08-14T04:26:53.123Z,95629.19
2023-08-14T04:29:22.817Z,95634.34
2023-08-14T04:31:53.855Z,95650.66
2023-08-14T04:34:23.468Z,95660.91
2023-08-14T04:36:55.444Z,95671.69
2023-08-14T04:39:24.964Z,95674.09
2023-08-14T04:41:55.132Z,95689.78
2023-08-14T04:44:27.252Z,95695.41
2023-08-14T04:47:00.310Z,95687.44
2023-08-14T04:49:33.629Z,95703.44
2023-08-14T04:52:03.250Z,95706.16
2023-08-14T04:54:35.959Z,95704.75
2023-08-14T04:57:05.691Z,95713.41
2023-08-14T04:59:35.478Z,95714.72
2023-08-14T05:02:07.587Z,95705.13
2023-08-14T05:04:37.451Z,95699.38
2023-08-14T05:07:07.327Z,95707.22
2023-08-14T05:09:36.941Z,95703.41
2023-08-14T05:12:08.208Z,95718.31
2023-08-14T05:14:38.068Z,95719.91
2023-08-14T05:17:09.027Z,95722.63
2023-08-14T05:19:38.566Z,95722.31
2023-08-14T05:22:08.175Z,95726.31
2023-08-14T05:24:37.807Z,95715.94
2023-08-14T05:27:07.799Z,95709.88
2023-08-14T05:29:37.393Z,95712.78
2023-08-14T05:32:08.499Z,95710.25
2023-08-14T05:34:38.027Z,95705.81
2023-08-14T05:37:07.706Z,95711.94
2023-08-14T05:39:37.237Z,95700.44
2023-08-14T05:42:07.269Z,95701.41
2023-08-14T05:44:36.775Z,95711.38
2023-08-14T05:47:07.882Z,95713.97
2023-08-14T05:49:37.391Z,95706.47
2023-08-14T05:52:07.522Z,95700.59
2023-08-14T05:54:37.030Z,95703.63
2023-08-14T05:57:07.002Z,95707.84
2023-08-14T05:59:36.619Z,95700.81
2023-08-14T06:02:08.010Z,95706.31
2023-08-14T06:04:39.310Z,95696.53
2023-08-14T06:07:08.886Z,95694.03
2023-08-14T06:09:38.407Z,95698.56
2023-08-14T06:12:09.926Z,95700.06
2023-08-14T06:14:40.146Z,95704.56
2023-08-14T06:17:11.614Z,95705.53
2023-08-14T06:19:41.167Z,95707.31
2023-08-14T06:22:10.666Z,95700.91
2023-08-14T06:24:40.345Z,95696.41
2023-08-14T06:27:09.916Z,95694.00
2023-08-14T06:29:39.538Z,95686.06
2023-08-14T06:32:11.420Z,95679.16
2023-08-14T06:34:41.111Z,95674.44
2023-08-14T06:37:11.414Z,95674.75
2023-08-14T06:39:41.003Z,95678.09
2023-08-14T06:42:10.900Z,95678.72
2023-08-14T06:44:41.137Z,95688.66
2023-08-14T06:47:12.201Z,95686.06
2023-08-14T06:49:41.741Z,95681.06
2023-08-14T06:52:11.262Z,95678.81
2023-08-14T06:54:40.774Z,95688.16
2023-08-14T06:57:10.324Z,95681.06
2023-08-14T06:59:40.048Z,95690.09
2023-08-14T07:02:11.019Z,95690.41
2023-08-14T07:04:40.535Z,95687.19
2023-08-14T07:07:10.005Z,95688.00
2023-08-14T07:09:39.495Z,95693.94
2023-08-14T07:12:09.661Z,95686.22
2023-08-14T07:14:39.248Z,95698.13
2023-08-14T07:17:08.723Z,95693.16
2023-08-14T07:19:39.683Z,95683.16
2023-08-14T07:22:09.199Z,95678.97
2023-08-14T07:24:39.866Z,95683.44
2023-08-14T07:27:09.385Z,95685.50
2023-08-14T07:29:38.971Z,95691.91
2023-08-14T07:32:08.724Z,95689.31
2023-08-14T07:34:39.547Z,95695.88
2023-08-14T07:37:09.096Z,95695.38
2023-08-14T07:39:38.617Z,95693.97
2023-08-14T07:42:08.368Z,95696.59
2023-08-14T07:44:37.926Z,95687.66
2023-08-14T07:47:07.695Z,95688.19
2023-08-14T07:49:39.687Z,95690.81
2023-08-14T07:52:11.463Z,95696.59
2023-08-14T07:54:41.238Z,95694.47
2023-08-14T07:57:10.813Z,95693.44
2023-08-14T07:59:40.553Z,95690.38
2023-08-14T08:02:10.445Z,95689.69
2023-08-14T08:04:40.859Z,95682.34
2023-08-14T08:07:12.413Z,95672.31
2023-08-14T08:09:42.098Z,95671.50
2023-08-14T08:12:12.002Z,95660.03
2023-08-14T08:14:42.190Z,95666.19
2023-08-14T08:17:11.744Z,95667.09
2023-08-14T08:19:41.379Z,95673.13
2023-08-14T08:22:12.356Z,95674.03
2023-08-14T08:24:42.086Z,95670.25
2023-08-14T08:27:11.990Z,95672.41
2023-08-14T08:29:41.563Z,95674.13
2023-08-14T08:32:11.164Z,95681.78
2023-08-14T08:34:40.830Z,95680.38
2023-08-14T08:37:12.006Z,95678.53
2023-08-14T08:39:41.574Z,95680.25
2023-08-14T08:42:11.402Z,95678.84
2023-08-14T08:44:46.697Z,95677.88
2023-08-14T08:47:19.529Z,95684.38
2023-08-14T08:49:49.547Z,95692.09
2023-08-14T08:52:22.065Z,95675.88
2023-08-14T08:54:52.510Z,95659.22
2023-08-14T08:57:23.873Z,95663.06
2023-08-14T08:59:54.864Z,95665.72
2023-08-14T09:02:24.482Z,95668.13
2023-08-14T09:04:54.128Z,95666.84
2023-08-14T09:07:25.109Z,95661.28
2023-08-14T09:09:55.128Z,95663.25
2023-08-14T09:12:24.694Z,95665.16
2023-08-14T09:15:07.021Z,95656.75
2023-08-14T09:17:37.027Z,95655.41
2023-08-14T09:20:19.258Z,95666.63
2023-08-14T09:23:01.902Z,95658.31
2023-08-14T09:25:32.324Z,95656.31
2023-08-14T09:28:02.016Z,95654.16
2023-08-14T09:30:31.543Z,95642.84
2023-08-14T09:33:01.514Z,95642.63
2023-08-14T09:35:31.237Z,95644.38
2023-08-14T09:38:03.262Z,95648.09
2023-08-14T09:40:34.163Z,95647.44
2023-08-14T09:43:03.811Z,95651.53
2023-08-14T09:45:36.048Z,95655.41
2023-08-14T09:48:08.380Z,95651.56
2023-08-14T09:50:38.924Z,95638.25
2023-08-14T09:53:10.065Z,95632.97
2023-08-14T09:55:40.774Z,95636.34
2023-08-14T09:58:10.631Z,95635.94
2023-08-14T10:00:40.864Z,95629.13
2023-08-14T10:03:12.796Z,95643.16
2023-08-14T10:05:42.860Z,95641.13
2023-08-14T10:08:15.147Z,95640.50
2023-08-14T10:10:51.437Z,95640.59
2023-08-14T10:13:31.720Z,95626.72
2023-08-14T10:16:05.428Z,95622.31
2023-08-14T10:18:40.621Z,95631.34
2023-08-14T10:21:17.160Z,95626.91
2023-08-14T10:23:50.208Z,95622.09
2023-08-14T10:26:20.196Z,95623.22
2023-08-14T10:28:50.259Z,95623.66
2023-08-14T10:31:21.146Z,95625.03
2023-08-14T10:33:51.591Z,95617.81
2023-08-14T10:36:23.840Z,95606.56
2023-08-14T10:39:02.692Z,95614.69
2023-08-14T10:41:35.898Z,95606.22
2023-08-14T10:44:11.166Z,95611.09
2023-08-14T10:46:43.559Z,95611.63
2023-08-14T10:49:14.745Z,95614.75
2023-08-14T10:51:45.000Z,95616.75
2023-08-14T10:54:17.378Z,95614.03
2023-08-14T10:56:50.924Z,95615.28
2023-08-14T10:59:28.089Z,95609.03
2023-08-14T11:02:07.843Z,95605.88
2023-08-14T11:04:42.714Z,95608.25
2023-08-14T11:07:13.229Z,95603.53
2023-08-14T11:09:44.604Z,95601.53
2023-08-14T11:12:14.145Z,95604.28
2023-08-14T11:14:44.664Z,95611.03
2023-08-14T11:17:14.518Z,95601.16
2023-08-14T11:19:44.123Z,95594.78
2023-08-14T11:22:13.653Z,95590.75
2023-08-14T11:24:44.531Z,95582.78
2023-08-14T11:27:14.243Z,95586.34
2023-08-14T11:29:51.784Z,95580.34
2023-08-14T11:32:23.403Z,95587.78
2023-08-14T11:34:53.629Z,95594.88
2023-08-14T11:37:23.253Z,95593.75
2023-08-14T11:39:54.348Z,95590.22
2023-08-14T11:42:24.874Z,95591.41
2023-08-14T11:44:54.386Z,95592.19
2023-08-14T11:47:24.712Z,95595.31
2023-08-14T11:49:55.676Z,95584.59
2023-08-14T11:52:26.873Z,95590.59
2023-08-14T11:54:58.964Z,95587.00
2023-08-14T11:57:30.567Z,95584.22
2023-08-14T12:00:06.855Z,95582.66
2023-08-14T12:02:36.570Z,95583.47
2023-08-14T12:05:06.980Z,95578.75
2023-08-14T12:07:36.961Z,95578.41
2023-08-14T12:10:12.134Z,95570.44
2023-08-14T12:12:51.417Z,95565.91
2023-08-14T12:15:25.342Z,95560.56
2023-08-14T12:17:54.892Z,95561.88
2023-08-14T12:20:25.067Z,95553.22
2023-08-14T12:22:59.757Z,95551.44
2023-08-14T12:25:31.921Z,95555.53
2023-08-14T12:28:02.887Z,95553.66
2023-08-14T12:30:32.436Z,95549.94
2023-08-14T12:33:02.057Z,95547.47
2023-08-14T12:35:31.787Z,95543.38
2023-08-14T12:38:01.269Z,95541.34
2023-08-14T12:40:33.155Z,95551.53
2023-08-14T12:43:03.131Z,95550.19
2023-08-14T12:45:32.711Z,95550.09
2023-08-14T12:48:02.140Z,95547.38
2023-08-14T12:50:32.369Z,95546.31
2023-08-14T12:53:03.932Z,95551.16
2023-08-14T12:55:34.616Z,95547.31
2023-08-14T12:58:06.353Z,95551.31
2023-08-14T13:00:36.408Z,95550.72
2023-08-14T13:03:06.608Z,95540.31
2023-08-14T13:05:36.280Z,95548.31
2023-08-14T13:08:06.578Z,95549.09
2023-08-14T13:10:37.393Z,95548.94
2023-08-14T13:13:06.918Z,95541.78
2023-08-14T13:15:36.380Z,95544.34
2023-08-14T13:18:06.849Z,95549.09
2023-08-14T13:20:36.308Z,95533.28
2023-08-14T13:23:06.315Z,95532.88
2023-08-14T13:25:42.077Z,95537.00
2023-08-14T13:28:12.641Z,95540.66
2023-08-14T13:30:44.373Z,95533.22
2023-08-14T13:33:14.882Z,95532.13
2023-08-14T13:35:44.774Z,95536.97
2023-08-14T13:38:14.631Z,95535.59
2023-08-14T13:40:45.574Z,95532.16
2023-08-14T13:43:15.561Z,95536.56
2023-08-14T13:45:45.069Z,95538.63
2023-08-14T13:48:14.753Z,95541.91
2023-08-14T13:50:44.304Z,95539.97
2023-08-14T13:53:13.849Z,95533.63
2023-08-14T13:55:45.430Z,95537.19
2023-08-14T13:58:15.092Z,95529.63
2023-08-14T14:00:44.519Z,95522.72
2023-08-14T14:03:13.919Z,95528.19
2023-08-14T14:05:43.495Z,95527.28
2023-08-14T14:08:13.127Z,95532.00
2023-08-14T14:10:43.914Z,95524.47
2023-08-14T14:13:13.392Z,95524.38
2023-08-14T14:15:42.918Z,95528.91
2023-08-14T14:18:12.430Z,95529.91
2023-08-14T14:20:42.038Z,95531.84
2023-08-14T14:23:11.491Z,95530.75
2023-08-14T14:25:40.967Z,95529.69
2023-08-14T14:28:11.736Z,95518.41
2023-08-14T14:30:41.243Z,95518.31
2023-08-14T14:33:10.696Z,95518.84
2023-08-14T14:35:40.066Z,95517.28
2023-08-14T14:38:10.582Z,95522.22
2023-08-14T14:40:40.938Z,95522.59
2023-08-14T14:43:12.124Z,95514.69
2023-08-14T14:45:42.162Z,95517.75
2023-08-14T14:48:11.760Z,95512.28
2023-08-14T14:50:41.526Z,95517.66
2023-08-14T14:53:12.983Z,95514.94
2023-08-14T14:55:42.444Z,95517.00
2023-08-14T14:58:13.215Z,95506.72
2023-08-14T15:00:42.701Z,95516.44
2023-08-14T15:03:14.980Z,95506.66
2023-08-14T15:05:44.575Z,95500.88
2023-08-14T15:08:14.055Z,95499.50
2023-08-14T15:10:43.503Z,95503.31
2023-08-14T15:13:14.671Z,95500.56
2023-08-14T15:15:44.233Z,95501.53
2023-08-14T15:18:13.817Z,95490.22
2023-08-14T15:20:43.679Z,95495.03
2023-08-14T15:23:13.229Z,95494.72
2023-08-14T15:25:42.702Z,95489.19
2023-08-14T15:28:13.577Z,95491.38
2023-08-14T15:30:44.231Z,95486.44
2023-08-14T15:33:13.945Z,95477.44
2023-08-14T15:35:43.411Z,95476.25
2023-08-14T15:38:13.119Z,95480.91
2023-08-14T15:40:49.578Z,95482.84
2023-08-14T15:43:20.597Z,95480.75
2023-08-14T15:45:50.271Z,95478.22
2023-08-14T15:48:19.706Z,95476.16
2023-08-14T15:50:52.435Z,95476.97
2023-08-14T15:53:22.234Z,95482.09
2023-08-14T15:55:52.155Z,95479.97
2023-08-14T15:58:22.962Z,95485.19
2023-08-14T16:00:52.500Z,95473.09
2023-08-14T16:03:21.979Z,95476.59
2023-08-14T16:05:57.040Z,95473.94
2023-08-14T16:08:26.656Z,95477.31
2023-08-14T16:10:56.082Z,95481.81
2023-08-14T16:13:27.115Z,95484.44
2023-08-14T16:15:57.037Z,95483.78
2023-08-14T16:18:26.817Z,95480.41
2023-08-14T16:20:58.040Z,95475.38
2023-08-14T16:23:29.071Z,95473.53
2023-08-14T16:25:58.519Z,95466.97
2023-08-14T16:28:29.598Z,95474.31
2023-08-14T16:30:59.216Z,95470.47
2023-08-14T16:33:29.012Z,95469.88
2023-08-14T16:35:58.955Z,95470.03
2023-08-14T16:38:28.656Z,95472.97
2023-08-14T16:40:58.608Z,95482.31
2023-08-14T16:43:29.676Z,95478.09
2023-08-14T16:45:59.258Z,95481.44
2023-08-14T16:48:28.648Z,95479.94
2023-08-14T16:51:01.740Z,95480.38
2023-08-14T16:53:31.295Z,95482.41
2023-08-14T16:56:00.813Z,95484.03
2023-08-14T16:58:31.586Z,95488.03
2023-08-14T17:01:01.104Z,95481.31
2023-08-14T17:03:30.656Z,95490.44
2023-08-14T17:06:05.367Z,95486.88
2023-08-14T17:08:37.691Z,95483.72
2023-08-14T17:11:08.915Z,95486.91
2023-08-14T17:13:39.681Z,95484.50
2023-08-14T17:16:11.678Z,95492.41
2023-08-14T17:18:41.094Z,95505.50
2023-08-14T17:21:10.967Z,95494.78
2023-08-14T17:23:41.391Z,95500.31
2023-08-14T17:26:10.941Z,95501.88
2023-08-14T17:28:41.754Z,95498.63
2023-08-14T17:31:11.285Z,95501.38
2023-08-14T17:33:40.762Z,95500.91
2023-08-14T17:36:10.509Z,95494.13
2023-08-14T17:38:43.061Z,95495.22
2023-08-14T17:41:13.115Z,95498.75
2023-08-14T17:43:44.041Z,95502.63
2023-08-14T17:46:13.513Z,95498.63
2023-08-14T17:48:43.030Z,95496.53
2023-08-14T17:51:12.480Z,95494.03
2023-08-14T17:53:41.885Z,95497.78
2023-08-14T17:56:11.538Z,95497.94
2023-08-14T17:58:41.030Z,95498.84
2023-08-14T18:01:12.072Z,95504.88
2023-08-14T18:03:41.899Z,95504.16
2023-08-14T18:06:11.434Z,95505.84
2023-08-14T18:08:41.616Z,95507.91
2023-08-14T18:11:13.552Z,95500.50
2023-08-14T18:13:43.131Z,95504.16
2023-08-14T18:16:14.023Z,95504.31
2023-08-14T18:18:43.646Z,95496.94
2023-08-14T18:21:14.658Z,95501.03
2023-08-14T18:23:49.025Z,95503.97
2023-08-14T18:26:18.486Z,95511.69
2023-08-14T18:28:48.368Z,95507.13
2023-08-14T18:31:19.233Z,95518.69
2023-08-14T18:33:48.658Z,95520.78
2023-08-14T18:36:18.122Z,95511.81
2023-08-14T18:38:47.641Z,95522.63
2023-08-14T18:41:17.054Z,95522.75
2023-08-14T18:43:46.597Z,95519.72
2023-08-14T18:46:16.293Z,95520.97
2023-08-14T18:48:47.319Z,95521.09
2023-08-14T18:51:16.837Z,95526.31
2023-08-14T18:53:47.611Z,95528.03
2023-08-14T18:56:17.271Z,95522.63
2023-08-14T18:58:48.399Z,95528.19
2023-08-14T19:01:19.122Z,95529.91
2023-08-14T19:03:50.006Z,95539.44
2023-08-14T19:06:19.561Z,95537.56
2023-08-14T19:08:49.125Z,95535.31
2023-08-14T19:11:18.783Z,95535.47
2023-08-14T19:13:48.207Z,95539.19
2023-08-14T19:16:17.748Z,95553.41
2023-08-14T19:18:47.308Z,95544.53
2023-08-14T19:21:18.200Z,95558.41
2023-08-14T19:23:47.776Z,95556.94
2023-08-14T19:26:27.223Z,95559.44
2023-08-14T19:28:57.873Z,95554.56
2023-08-14T19:31:28.425Z,95568.53
2023-08-14T19:34:02.538Z,95556.53
2023-08-14T19:36:33.541Z,95558.38
2023-08-14T19:39:02.992Z,95566.03
2023-08-14T19:41:32.445Z,95563.09
2023-08-14T19:44:04.995Z,95560.13
2023-08-14T19:46:34.888Z,95566.63
2023-08-14T19:49:04.700Z,95563.31
2023-08-14T19:51:35.587Z,95557.72
2023-08-14T19:54:06.152Z,95565.03
2023-08-14T19:56:35.599Z,95554.44
2023-08-14T19:59:07.602Z,95563.00
2023-08-14T20:01:38.743Z,95562.53
2023-08-14T20:04:09.493Z,95559.34
2023-08-14T20:06:43.694Z,95560.81
2023-08-14T20:09:13.610Z,95563.44
2023-08-14T20:11:43.162Z,95564.31
2023-08-14T20:14:13.690Z,95564.91
2023-08-14T20:16:43.234Z,95565.47
2023-08-14T20:19:12.933Z,95568.41
2023-08-14T20:21:44.007Z,95562.00
2023-08-14T20:24:13.496Z,95560.28
2023-08-14T20:26:43.152Z,95559.38
2023-08-14T20:29:12.661Z,95556.06
2023-08-14T20:31:42.103Z,95549.53
2023-08-14T20:34:11.662Z,95560.72
2023-08-14T20:36:42.002Z,95554.97
2023-08-14T20:39:14.150Z,95551.69
2023-08-14T20:41:43.559Z,95552.22
2023-08-14T20:44:12.983Z,95551.75
2023-08-14T20:46:42.493Z,95553.06
2023-08-14T20:49:11.992Z,95552.47
2023-08-14T20:51:41.581Z,95547.22
2023-08-14T20:54:12.364Z,95556.78
2023-08-14T20:56:41.889Z,95560.84
2023-08-14T20:59:11.719Z,95559.91
2023-08-14T21:01:41.127Z,95560.44
2023-08-14T21:04:10.647Z,95564.88
2023-08-14T21:06:40.038Z,95561.06
2023-08-14T21:09:09.501Z,95558.19
2023-08-14T21:11:40.261Z,95561.59
2023-08-14T21:14:09.779Z,95561.47
2023-08-14T21:16:39.387Z,95562.59
2023-08-14T21:19:08.821Z,95565.66
2023-08-14T21:21:38.279Z,95557.78
2023-08-14T21:24:09.003Z,95560.84
2023-08-14T21:26:39.866Z,95559.25
2023-08-14T21:29:09.529Z,95555.28
2023-08-14T21:31:39.090Z,95550.81
2023-08-14T21:34:10.688Z,95548.41
2023-08-14T21:36:40.197Z,95547.59
2023-08-14T21:39:10.062Z,95540.53
2023-08-14T21:41:40.929Z,95547.13
2023-08-14T21:44:10.443Z,95544.25
2023-08-14T21:46:40.029Z,95546.19
2023-08-14T21:49:09.470Z,95547.63
2023-08-14T21:51:39.045Z,95543.47
2023-08-14T21:54:11.979Z,95542.53
2023-08-14T21:56:42.789Z,95545.47
2023-08-14T21:59:12.254Z,95546.00
2023-08-14T22:01:43.699Z,95547.44
2023-08-14T22:04:14.216Z,95548.44
2023-08-14T22:06:43.683Z,95548.75
2023-08-14T22:09:13.092Z,95546.34
2023-08-14T22:11:43.878Z,95542.03
2023-08-14T22:14:13.392Z,95545.88
2023-08-14T22:16:42.897Z,95543.94
2023-08-14T22:19:12.566Z,95547.81
2023-08-14T22:21:41.957Z,95540.75
2023-08-14T22:24:15.228Z,95546.22
2023-08-14T22:26:51.076Z,95538.69
2023-08-14T22:29:20.591Z,95535.81
2023-08-14T22:31:50.184Z,95534.56
2023-08-14T22:34:19.621Z,95538.41
2023-08-14T22:36:49.105Z,95537.13
2023-08-14T22:39:18.577Z,95535.53
2023-08-14T22:41:48.033Z,95538.91
2023-08-14T22:44:18.828Z,95533.31
2023-08-14T22:46:48.286Z,95540.69
2023-08-14T22:49:17.716Z,95541.34
2023-08-14T22:51:47.180Z,95540.56
2023-08-14T22:54:16.837Z,95540.06
2023-08-14T22:56:46.329Z,95546.53
2023-08-14T22:59:15.788Z,95541.25
2023-08-14T23:01:46.602Z,95537.91
2023-08-14T23:04:16.091Z,95535.81
2023-08-14T23:06:45.546Z,95538.88
2023-08-14T23:09:15.068Z,95537.09
2023-08-14T23:11:44.532Z,95538.88
2023-08-14T23:14:13.987Z,95547.06
2023-08-14T23:16:43.395Z,95548.66
2023-08-14T23:19:14.260Z,95541.28
2023-08-14T23:21:43.747Z,95545.94
2023-08-14T23:24:13.166Z,95541.91
2023-08-14T23:26:42.645Z,95548.66
2023-08-14T23:29:12.118Z,95543.06
2023-08-14T23:31:41.614Z,95544.16
2023-08-14T23:34:11.191Z,95548.81
2023-08-14T23:36:41.990Z,95546.88
2023-08-14T23:39:11.467Z,95542.72
2023-08-14T23:41:41.313Z,95552.84
2023-08-14T23:44:12.428Z,95546.13
2023-08-14T23:46:42.116Z,95553.84
2023-08-14T23:49:11.639Z,95549.03
2023-08-14T23:51:42.598Z,95546.16
2023-08-14T23:54:12.070Z,95558.84
2023-08-14T23:56:41.812Z,95549.69
2023-08-14T23:59:11.253Z,95555.47
